Parc national de Yoho, Colombie-Britannique

Conditions des dernières 24 heures

Ce tableau est un sommaire des conditions météo couvrant les dernières 24 heures. Ce sommaire inclut les paramètres suivants: température, humidité, point de rosée, direction et vitesse du vent, pression barométrique, facteur de refroidissement éolien ou indice humidex.
Date / Heure
(HAR)
Conditions Temp (°C) Humidite (%) Point de rose (°C) Vent (km/h) Pression (kPa) Visibilité (km)
22 septembre 2014
16:00 N.D. 18 49 7 OSO 18 101,3 N.D.
15:00 N.D. 18 47 7 OSO 20 101,4 N.D.
14:00 N.D. 20   36 5 OSO 22 101,4 N.D.
13:00 N.D. 19 40 5 OSO 23 101,4 N.D.
12:00 N.D. 18 45 6 OSO 23 101,4 N.D.
11:00 N.D. 14 59 6 SO 23 101,5 N.D.
10:00 N.D. 9 82 6 SO 22 101,6 N.D.
9:00 N.D. 6 92 5 SO 4 101,6 N.D.
8:00 N.D. 2   98 2 ENE 3 101,7 N.D.
7:00 N.D. 2   98 2 ENE 3 101,6 N.D.
6:00 N.D. 2   96 2 calme 101,6 N.D.
5:00 N.D. 3 97 3 calme 101,5 N.D.
4:00 N.D. 3 94 2 E 3 101,6 N.D.
3:00 N.D. 4 94 3 E 3 101,6 N.D.
2:00 N.D. 4 93 3 N 4 101,6 N.D.
1:00 N.D. 4 91 3 E 3 101,6 N.D.
0:00 N.D. 5 90 4 ENE 3 101,6 N.D.
21 septembre 2014
23:00 N.D. 7 87 5 NE 3 101,7 N.D.
22:00 N.D. 9 81 5 ENE 4 101,8 N.D.
21:00 N.D. 11 80 7 OSO 4 101,8 N.D.
20:00 N.D. 11 80 8 calme 101,8 N.D.
19:00 N.D. 14 69 8 OSO 5 101,8 N.D.
18:00 N.D. 17 53 7 OSO 18 101,7 N.D.
17:00 N.D. 19 45 7 OSO 25 101,7 N.D.
16:00 N.D. 20   38 5 OSO 32 101,7 N.D.
N.D.
non disponible
 ↑ 
température la plus haute
 ↓ 
température la plus basse

Si vous désirez plus de données historiques sur les conditions météo, s.v.p. visitez Données climatologiques en ligne.